createdAt,value
2022-09-28T00:01:13.725Z,4.30
2022-09-28T00:04:06.416Z,4.78
2022-09-28T00:06:33.325Z,4.63
2022-09-28T00:09:00.101Z,5.03
2022-09-28T00:11:28.476Z,4.10
2022-09-28T00:13:58.960Z,4.82
2022-09-28T00:16:29.517Z,4.70
2022-09-28T00:18:56.527Z,4.82
2022-09-28T00:21:25.559Z,4.90
2022-09-28T00:23:54.252Z,4.78
2022-09-28T00:26:21.091Z,4.30
2022-09-28T00:28:51.346Z,4.32
2022-09-28T00:31:18.306Z,4.13
2022-09-28T00:33:45.207Z,4.70
2022-09-28T00:36:12.045Z,4.80
2022-09-28T00:38:38.887Z,4.45
2022-09-28T00:41:06.131Z,4.57
2022-09-28T00:43:33.028Z,4.90
2022-09-28T00:46:10.402Z,4.43
2022-09-28T00:48:42.989Z,4.03
2022-09-28T00:51:12.825Z,4.15
2022-09-28T00:53:44.133Z,4.35
2022-09-28T00:56:16.953Z,3.63
2022-09-28T00:58:47.483Z,3.47
2022-09-28T01:01:15.895Z,3.90
2022-09-28T01:03:43.706Z,3.97
2022-09-28T01:06:14.924Z,3.92
2022-09-28T01:08:44.917Z,4.07
2022-09-28T01:11:14.074Z,4.15
2022-09-28T01:13:41.881Z,3.42
2022-09-28T01:16:19.599Z,3.75
2022-09-28T01:19:02.408Z,3.40
2022-09-28T01:21:49.902Z,3.60
2022-09-28T01:24:39.879Z,3.53
2022-09-28T01:27:15.494Z,3.53
2022-09-28T01:29:54.076Z,3.40
2022-09-28T01:32:32.462Z,3.38
2022-09-28T01:35:07.536Z,3.40
2022-09-28T01:37:44.792Z,3.70
2022-09-28T01:40:13.677Z,2.28
2022-09-28T01:42:46.926Z,3.65
2022-09-28T01:45:22.033Z,2.72
2022-09-28T01:48:24.546Z,3.47
2022-09-28T01:50:57.752Z,3.95
2022-09-28T01:53:35.765Z,4.10
2022-09-28T01:56:11.426Z,3.83
2022-09-28T01:58:47.267Z,3.88
2022-09-28T02:01:22.670Z,4.30
2022-09-28T02:04:01.001Z,4.60
2022-09-28T02:06:34.692Z,3.55
2022-09-28T02:09:10.390Z,4.30
2022-09-28T02:11:48.084Z,4.25
2022-09-28T02:14:18.500Z,3.70
2022-09-28T02:16:50.465Z,4.27
2022-09-28T02:19:28.152Z,4.18
2022-09-28T02:22:03.524Z,4.45
2022-09-28T02:24:39.048Z,4.18
2022-09-28T02:27:16.059Z,4.93
2022-09-28T02:29:44.464Z,4.72
2022-09-28T02:32:11.775Z,4.95
2022-09-28T02:34:39.030Z,5.55
2022-09-28T02:37:06.143Z,5.78
2022-09-28T02:39:33.042Z,5.97
2022-09-28T02:42:15.338Z,5.40
2022-09-28T02:45:11.818Z,5.40
2022-09-28T02:48:02.383Z,5.43
2022-09-28T02:50:42.998Z,5.35
2022-09-28T02:53:44.898Z,6.13
2022-09-28T02:56:33.728Z,6.22
2022-09-28T02:59:15.454Z,6.20
2022-09-28T03:01:58.583Z,6.45
2022-09-28T03:04:37.682Z,6.43
2022-09-28T03:07:24.265Z,6.13
2022-09-28T03:10:01.093Z,6.05
2022-09-28T03:12:29.013Z,6.18
2022-09-28T03:18:02.904Z,6.43
2022-09-28T03:20:32.106Z,6.32
2022-09-28T03:23:23.165Z,6.68
2022-09-28T03:25:46.435Z,6.80
2022-09-28T03:28:13.431Z,7.00
2022-09-28T03:30:41.036Z,6.72
2022-09-28T03:33:09.408Z,6.68
2022-09-28T03:35:36.370Z,6.90
2022-09-28T03:38:03.308Z,6.40
2022-09-28T03:40:32.463Z,6.72
2022-09-28T03:43:00.667Z,8.10
2022-09-28T03:45:27.769Z,7.25
2022-09-28T03:48:26.680Z,8.77
2022-09-28T03:50:57.326Z,7.85
2022-09-28T03:53:25.242Z,7.22
2022-09-28T03:55:53.517Z,7.03
2022-09-28T03:58:21.473Z,6.22
2022-09-28T04:00:54.976Z,6.63
2022-09-28T04:03:23.749Z,6.80
2022-09-28T04:05:52.668Z,6.55
2022-09-28T04:08:20.105Z,7.03
2022-09-28T04:10:47.262Z,7.00
2022-09-28T04:13:14.636Z,6.70
2022-09-28T04:15:42.615Z,6.75
2022-09-28T04:18:10.358Z,7.20
2022-09-28T04:21:04.242Z,7.38
2022-09-28T04:23:34.708Z,6.70
2022-09-28T04:26:02.116Z,6.80
2022-09-28T04:28:29.551Z,7.13
2022-09-28T04:30:56.481Z,7.20
2022-09-28T04:33:23.466Z,6.63
2022-09-28T04:35:50.357Z,7.18
2022-09-28T04:38:35.670Z,7.05
2022-09-28T04:41:06.155Z,7.60
2022-09-28T04:43:33.764Z,7.70
2022-09-28T04:46:02.403Z,6.90
2022-09-28T04:48:38.446Z,7.43
2022-09-28T04:51:13.292Z,7.53
2022-09-28T04:53:41.588Z,7.90
2022-09-28T04:56:12.624Z,7.00
2022-09-28T04:58:41.204Z,7.57
2022-09-28T05:01:14.233Z,8.07
2022-09-28T05:04:01.809Z,8.20
2022-09-28T05:06:38.298Z,7.75
2022-09-28T05:09:08.400Z,7.80
2022-09-28T05:11:35.665Z,8.48
2022-09-28T05:14:04.553Z,8.15
2022-09-28T05:16:31.683Z,7.88
2022-09-28T05:19:17.486Z,8.48
2022-09-28T05:21:45.183Z,8.02
2022-09-28T05:24:13.641Z,8.05
2022-09-28T05:26:43.505Z,7.80
2022-09-28T05:29:11.456Z,7.45
2022-09-28T05:31:56.825Z,7.63
2022-09-28T05:34:26.706Z,7.57
2022-09-28T05:36:54.350Z,7.50
2022-09-28T05:39:22.672Z,7.07
2022-09-28T05:41:49.830Z,6.07
2022-09-28T05:44:17.007Z,6.03
2022-09-28T05:46:44.537Z,6.78
2022-09-28T05:49:12.572Z,6.75
2022-09-28T05:51:39.492Z,6.70
2022-09-28T05:57:01.114Z,6.80
2022-09-28T05:59:27.916Z,5.68
2022-09-28T06:01:55.289Z,7.40
2022-09-28T06:04:22.364Z,5.20
2022-09-28T06:06:49.513Z,7.40
2022-09-28T06:09:16.679Z,8.00
2022-09-28T06:11:48.141Z,9.55
2022-09-28T06:14:37.856Z,9.52
2022-09-28T06:17:04.949Z,8.93
2022-09-28T06:19:32.054Z,10.93
2022-09-28T06:22:07.498Z,8.00
2022-09-28T06:24:41.792Z,5.68
2022-09-28T06:27:10.218Z,6.38
2022-09-28T06:29:37.177Z,6.57
2022-09-28T06:32:04.512Z,5.55
2022-09-28T06:34:31.357Z,7.00
2022-09-28T06:36:59.057Z,6.90
2022-09-28T06:39:25.861Z,6.65
2022-09-28T06:41:52.692Z,7.22
2022-09-28T06:44:22.608Z,6.78
2022-09-28T06:47:07.957Z,6.03
2022-09-28T06:49:52.327Z,6.78
2022-09-28T06:52:39.316Z,6.45
2022-09-28T06:55:29.943Z,6.20
2022-09-28T06:57:59.110Z,6.13
2022-09-28T07:00:27.698Z,6.47
2022-09-28T07:02:55.183Z,6.05
2022-09-28T07:05:51.709Z,6.45
2022-09-28T07:08:33.378Z,6.78
2022-09-28T07:11:20.486Z,5.55
2022-09-28T07:14:03.737Z,5.78
2022-09-28T07:16:59.462Z,5.78
2022-09-28T07:19:20.061Z,6.18
2022-09-28T07:21:54.500Z,5.82
2022-09-28T07:24:26.838Z,6.15
2022-09-28T07:26:56.497Z,6.40
2022-09-28T07:29:36.077Z,6.70
2022-09-28T07:32:22.599Z,6.70
2022-09-28T07:34:59.749Z,7.18
2022-09-28T07:37:43.277Z,6.25
2022-09-28T07:40:11.790Z,6.68
2022-09-28T07:42:39.405Z,7.35
2022-09-28T07:45:08.154Z,7.07
2022-09-28T07:47:36.401Z,6.57
2022-09-28T07:50:13.348Z,6.80
2022-09-28T07:52:53.352Z,7.13
2022-09-28T07:55:27.779Z,7.50
2022-09-28T07:58:13.333Z,6.95
2022-09-28T08:00:56.390Z,6.82
2022-09-28T08:03:49.629Z,6.78
2022-09-28T08:06:17.324Z,6.38
2022-09-28T08:08:45.111Z,7.25
2022-09-28T08:19:52.594Z,6.65
2022-09-28T08:22:20.427Z,6.30
2022-09-28T08:24:50.630Z,5.90
2022-09-28T08:27:17.637Z,6.00
2022-09-28T08:29:45.313Z,6.38
2022-09-28T08:32:38.749Z,6.32
2022-09-28T08:35:25.467Z,5.53
2022-09-28T08:38:11.304Z,6.50
2022-09-28T08:41:11.725Z,5.78
2022-09-28T08:44:13.237Z,6.50
2022-09-28T08:47:17.122Z,5.97
2022-09-28T08:50:02.820Z,4.65
2022-09-28T08:52:53.777Z,5.82
2022-09-28T08:55:47.261Z,7.00
2022-09-28T08:58:19.379Z,6.63
2022-09-28T09:00:48.859Z,6.15
2022-09-28T09:03:40.610Z,6.07
2022-09-28T09:06:50.667Z,6.30
2022-09-28T09:09:42.864Z,5.95
2022-09-28T09:12:19.129Z,5.93
2022-09-28T09:15:13.044Z,6.93
2022-09-28T09:17:56.439Z,6.50
2022-09-28T09:20:47.506Z,5.57
2022-09-28T09:26:37.532Z,6.22
2022-09-28T09:29:36.604Z,5.43
2022-09-28T09:32:29.508Z,4.57
2022-09-28T09:35:30.515Z,4.43
2022-09-28T09:38:41.520Z,4.18
2022-09-28T09:42:00.022Z,4.90
2022-09-28T09:45:19.695Z,4.95
2022-09-28T09:48:02.401Z,5.15
2022-09-28T09:50:37.314Z,4.80
2022-09-28T09:53:14.799Z,4.50
2022-09-28T09:55:46.052Z,4.57
2022-09-28T09:58:31.324Z,5.07
2022-09-28T10:01:19.430Z,4.22
2022-09-28T10:04:17.671Z,4.47
2022-09-28T10:06:46.872Z,4.65
2022-09-28T10:09:22.751Z,4.75
2022-09-28T10:11:50.243Z,4.55
2022-09-28T10:14:22.582Z,4.90
2022-09-28T10:16:58.285Z,4.40
2022-09-28T10:19:48.529Z,4.40
2022-09-28T10:22:34.381Z,3.90
2022-09-28T10:25:12.622Z,4.28
2022-09-28T10:27:44.074Z,4.22
2022-09-28T10:30:19.264Z,4.20
2022-09-28T10:32:49.231Z,3.80
2022-09-28T10:35:24.680Z,3.88
2022-09-28T10:37:59.984Z,3.97
2022-09-28T10:40:51.332Z,3.58
2022-09-28T10:43:39.553Z,3.90
2022-09-28T10:46:20.240Z,3.80
2022-09-28T10:48:55.088Z,4.53
2022-09-28T10:51:41.492Z,4.47
2022-09-28T10:54:16.911Z,3.58
2022-09-28T10:56:52.148Z,3.50
2022-09-28T10:59:48.520Z,3.25
2022-09-28T11:02:36.607Z,3.35
2022-09-28T11:05:26.420Z,3.25
2022-09-28T11:07:57.685Z,3.15
2022-09-28T11:10:33.459Z,3.67
2022-09-28T11:13:11.637Z,3.40
2022-09-28T11:15:43.492Z,3.33
2022-09-28T11:18:26.795Z,3.17
2022-09-28T11:21:11.966Z,3.30
2022-09-28T11:23:43.358Z,2.97
2022-09-28T11:26:19.337Z,3.15
2022-09-28T11:28:51.582Z,2.83
2022-09-28T11:31:28.001Z,3.15
2022-09-28T11:34:24.902Z,3.00
2022-09-28T11:37:24.187Z,2.78
2022-09-28T11:40:01.827Z,2.85
2022-09-28T11:42:43.590Z,2.22
2022-09-28T11:45:38.558Z,2.63
2022-09-28T11:48:09.435Z,2.17
2022-09-28T11:50:48.444Z,2.30
2022-09-28T11:53:26.103Z,2.28
2022-09-28T11:56:08.842Z,1.98
2022-09-28T11:58:42.013Z,1.95
2022-09-28T12:01:24.299Z,1.95
2022-09-28T12:04:14.631Z,2.25
2022-09-28T12:06:50.704Z,2.05
2022-09-28T12:09:28.216Z,1.67
2022-09-28T12:12:06.588Z,1.65
2022-09-28T12:14:43.222Z,1.65
2022-09-28T12:17:21.256Z,1.88
2022-09-28T12:19:53.981Z,1.77
2022-09-28T12:22:31.883Z,1.50
2022-09-28T12:25:01.831Z,1.40
2022-09-28T12:27:40.016Z,2.28
2022-09-28T12:30:15.826Z,2.25
2022-09-28T12:32:49.370Z,2.10
2022-09-28T12:35:31.639Z,1.75
2022-09-28T12:38:29.192Z,2.17
2022-09-28T12:41:10.367Z,2.08
2022-09-28T12:43:58.664Z,2.15
2022-09-28T12:46:48.118Z,2.25
2022-09-28T12:50:36.215Z,1.80
2022-09-28T12:52:38.461Z,1.58
2022-09-28T12:55:37.399Z,1.55
2022-09-28T12:58:29.443Z,1.55
2022-09-28T13:04:16.492Z,1.00
2022-09-28T13:06:56.130Z,1.00
2022-09-28T13:09:26.132Z,1.05
2022-09-28T13:12:15.400Z,1.30
2022-09-28T13:15:30.276Z,1.20
2022-09-28T13:18:08.261Z,1.00
2022-09-28T13:20:53.697Z,1.15
2022-09-28T13:23:25.584Z,1.02
2022-09-28T13:25:59.612Z,1.00
2022-09-28T13:28:31.309Z,1.10
2022-09-28T13:31:00.176Z,1.05
2022-09-28T13:33:33.986Z,1.20
2022-09-28T13:36:02.131Z,0.95
2022-09-28T13:38:46.758Z,1.00
2022-09-28T13:41:22.336Z,0.70
2022-09-28T13:44:41.574Z,0.60
2022-09-28T13:47:33.721Z,0.93
2022-09-28T13:52:50.331Z,0.80
2022-09-28T13:55:28.877Z,0.77
2022-09-28T13:58:01.311Z,1.23
2022-09-28T14:00:38.398Z,1.10
2022-09-28T14:03:25.157Z,1.08
2022-09-28T14:06:08.865Z,0.82
2022-09-28T14:08:43.778Z,0.93
2022-09-28T14:11:54.683Z,0.90
2022-09-28T14:14:29.269Z,1.10
2022-09-28T14:18:05.746Z,1.15
2022-09-28T14:21:06.922Z,1.02
2022-09-28T14:24:00.158Z,1.30
2022-09-28T14:27:12.847Z,1.30
2022-09-28T14:29:40.624Z,1.30
2022-09-28T14:32:23.814Z,1.08
2022-09-28T14:34:58.167Z,1.30
2022-09-28T14:37:31.680Z,1.38
2022-09-28T14:39:58.541Z,1.38
2022-09-28T14:42:26.086Z,1.20
2022-09-28T14:45:35.713Z,1.15
2022-09-28T14:48:20.673Z,1.48
2022-09-28T14:50:48.576Z,1.42
2022-09-28T14:53:21.861Z,1.38
2022-09-28T14:55:54.001Z,1.40
2022-09-28T14:58:25.780Z,1.23
2022-09-28T15:01:01.410Z,1.55
2022-09-28T15:03:33.279Z,1.73
2022-09-28T15:06:00.385Z,1.80
2022-09-28T15:08:38.941Z,1.23
2022-09-28T15:11:14.123Z,1.33
2022-09-28T15:13:42.687Z,1.48
2022-09-28T15:16:13.669Z,1.08
2022-09-28T15:19:19.239Z,1.33
2022-09-28T15:21:46.643Z,1.02
2022-09-28T15:24:31.202Z,1.23
2022-09-28T15:26:58.965Z,1.33
2022-09-28T15:29:26.359Z,1.05
2022-09-28T15:31:54.613Z,0.90
2022-09-28T15:34:33.613Z,1.08
2022-09-28T15:37:00.669Z,1.60
2022-09-28T15:39:32.686Z,1.33
2022-09-28T15:42:00.638Z,1.20
2022-09-28T15:44:31.031Z,1.20
2022-09-28T15:47:11.844Z,1.10
2022-09-28T15:49:44.715Z,1.10
2022-09-28T15:52:38.914Z,1.10
2022-09-28T15:55:21.144Z,1.20
2022-09-28T15:57:49.286Z,1.10
2022-09-28T16:00:27.798Z,1.23
2022-09-28T16:03:01.406Z,1.20
2022-09-28T16:05:42.307Z,1.42
2022-09-28T16:08:17.316Z,1.60
2022-09-28T16:10:57.670Z,1.40
2022-09-28T16:14:03.045Z,1.60
2022-09-28T16:16:36.423Z,1.65
2022-09-28T16:19:05.130Z,1.60
2022-09-28T16:21:44.157Z,1.55
2022-09-28T16:24:22.023Z,1.42
2022-09-28T16:26:59.720Z,1.60
2022-09-28T16:29:34.830Z,1.52
2022-09-28T16:32:38.411Z,1.42
2022-09-28T16:35:28.303Z,1.00
2022-09-28T16:38:11.665Z,1.15
2022-09-28T16:40:41.221Z,0.90
2022-09-28T16:43:20.824Z,0.88
2022-09-28T16:45:47.762Z,1.00
2022-09-28T16:48:16.132Z,0.90
2022-09-28T16:50:42.962Z,0.90
2022-09-28T16:53:15.001Z,0.93
2022-09-28T16:58:10.086Z,1.10
2022-09-28T17:00:39.279Z,2.38
2022-09-28T17:03:14.269Z,2.00
2022-09-28T17:05:42.407Z,1.55
2022-09-28T17:08:14.559Z,1.70
2022-09-28T17:11:13.126Z,1.52
2022-09-28T17:13:44.393Z,1.48
2022-09-28T17:16:14.113Z,1.38
2022-09-28T17:18:41.519Z,1.70
2022-09-28T17:21:13.632Z,1.58
2022-09-28T17:23:42.658Z,2.05
2022-09-28T17:26:20.147Z,2.10
2022-09-28T17:28:49.111Z,2.00
2022-09-28T17:31:17.113Z,1.63
2022-09-28T17:33:44.220Z,1.50
2022-09-28T17:36:16.409Z,1.60
2022-09-28T17:38:45.972Z,1.52
2022-09-28T17:41:20.014Z,1.67
2022-09-28T17:43:49.534Z,2.20
2022-09-28T17:46:27.732Z,2.80
2022-09-28T17:48:57.201Z,2.85
2022-09-28T17:51:23.926Z,3.40
2022-09-28T17:53:50.696Z,3.20
2022-09-28T17:56:17.476Z,4.30
2022-09-28T17:58:44.245Z,5.45
2022-09-28T18:01:12.744Z,4.90
2022-09-28T18:03:39.614Z,4.88
2022-09-28T18:06:11.241Z,5.80
2022-09-28T18:08:38.010Z,5.63
2022-09-28T18:11:05.372Z,6.85
2022-09-28T18:13:32.504Z,6.20
2022-09-28T18:15:59.633Z,6.88
2022-09-28T18:18:28.246Z,7.18
2022-09-28T18:20:55.392Z,7.93
2022-09-28T18:23:22.341Z,7.93
2022-09-28T18:25:49.246Z,8.18
2022-09-28T18:28:16.001Z,8.30
2022-09-28T18:30:44.916Z,8.02
2022-09-28T18:33:13.949Z,7.38
2022-09-28T18:35:51.070Z,6.57
2022-09-28T18:38:18.593Z,5.65
2022-09-28T18:40:45.993Z,4.47
2022-09-28T18:43:12.857Z,4.35
2022-09-28T18:45:39.885Z,3.55
2022-09-28T18:48:07.046Z,3.15
2022-09-28T18:50:34.105Z,2.58
2022-09-28T18:53:02.314Z,2.75
2022-09-28T18:55:29.220Z,2.72
2022-09-28T18:57:55.974Z,3.95
2022-09-28T19:00:22.836Z,3.60
2022-09-28T19:02:49.970Z,8.02
2022-09-28T19:05:17.087Z,5.60
2022-09-28T19:07:43.880Z,3.42
2022-09-28T19:10:12.281Z,3.28
2022-09-28T19:12:39.384Z,4.05
2022-09-28T19:15:07.572Z,5.25
2022-09-28T19:17:34.341Z,5.43
2022-09-28T19:20:01.737Z,6.55
2022-09-28T19:22:28.746Z,5.53
2022-09-28T19:24:55.829Z,6.10
2022-09-28T19:27:24.108Z,6.38
2022-09-28T19:29:51.532Z,7.93
2022-09-28T19:32:18.323Z,7.25
2022-09-28T19:34:45.309Z,8.05
2022-09-28T19:37:12.096Z,7.72
2022-09-28T19:39:38.844Z,6.90
2022-09-28T19:42:06.066Z,4.68
2022-09-28T19:44:35.543Z,3.80
2022-09-28T19:47:05.613Z,3.78
2022-09-28T19:49:34.037Z,3.85
2022-09-28T19:52:19.469Z,4.00
2022-09-28T19:54:48.415Z,4.05
2022-09-28T19:57:15.204Z,4.50
2022-09-28T19:59:43.876Z,4.80
2022-09-28T20:02:11.889Z,4.85
2022-09-28T20:04:38.932Z,4.57
2022-09-28T20:07:05.780Z,5.15
2022-09-28T20:09:32.763Z,4.47
2022-09-28T20:11:59.892Z,5.30
2022-09-28T20:14:32.070Z,4.63
2022-09-28T20:17:01.334Z,4.53
2022-09-28T20:19:28.125Z,4.05
2022-09-28T20:21:55.096Z,4.00
2022-09-28T20:24:21.990Z,3.85
2022-09-28T20:26:48.909Z,3.50
2022-09-28T20:29:15.701Z,3.90
2022-09-28T20:31:42.500Z,3.88
2022-09-28T20:34:12.674Z,3.47
2022-09-28T20:36:39.624Z,3.40
2022-09-28T20:39:06.459Z,3.30
2022-09-28T20:41:33.888Z,3.20
2022-09-28T20:44:05.384Z,3.10
2022-09-28T20:46:33.474Z,3.47
2022-09-28T20:49:00.521Z,3.38
2022-09-28T20:51:28.798Z,3.42
2022-09-28T20:53:57.680Z,3.28
2022-09-28T20:56:26.780Z,3.22
2022-09-28T20:58:55.187Z,3.28
2022-09-28T21:01:24.778Z,3.13
2022-09-28T21:03:54.496Z,3.28
2022-09-28T21:06:23.865Z,3.45
2022-09-28T21:08:52.665Z,3.42
2022-09-28T21:11:22.335Z,3.60
2022-09-28T21:13:54.156Z,3.80
2022-09-28T21:16:21.653Z,3.63
2022-09-28T21:18:48.629Z,3.45
2022-09-28T21:21:18.592Z,3.78
2022-09-28T21:23:46.721Z,3.22
2022-09-28T21:26:17.997Z,3.67
2022-09-28T21:28:44.923Z,3.73
2022-09-28T21:31:13.866Z,3.83
2022-09-28T21:33:40.769Z,4.50
2022-09-28T21:36:08.514Z,4.25
2022-09-28T21:38:35.390Z,3.70
2022-09-28T21:41:02.331Z,4.15
2022-09-28T21:43:31.513Z,4.30
2022-09-28T21:45:58.846Z,4.18
2022-09-28T21:48:28.175Z,3.67
2022-09-28T21:50:56.619Z,4.20
2022-09-28T21:53:24.104Z,4.13
2022-09-28T21:55:51.637Z,3.95
2022-09-28T21:58:18.572Z,4.50
2022-09-28T22:03:37.278Z,4.90
2022-09-28T22:06:05.977Z,5.07
2022-09-28T22:08:35.042Z,4.70
2022-09-28T22:13:59.510Z,5.43
2022-09-28T22:16:30.290Z,5.18
2022-09-28T22:18:57.772Z,5.25
2022-09-28T22:21:27.971Z,5.05
2022-09-28T22:23:58.330Z,5.32
2022-09-28T22:26:26.835Z,6.10
2022-09-28T22:28:56.103Z,5.50
2022-09-28T22:31:25.922Z,6.00
2022-09-28T22:33:54.645Z,6.22
2022-09-28T22:36:21.512Z,6.18
2022-09-28T22:38:49.136Z,6.00
2022-09-28T22:41:18.328Z,6.10
2022-09-28T22:43:45.262Z,6.05
2022-09-28T22:46:14.541Z,6.10
2022-09-28T22:48:41.401Z,6.55
2022-09-28T22:51:09.698Z,6.57
2022-09-28T22:53:36.505Z,6.82
2022-09-28T22:56:05.367Z,6.88
2022-09-28T22:58:32.849Z,7.28
2022-09-28T23:01:06.202Z,6.88
2022-09-28T23:03:33.184Z,6.60
2022-09-28T23:05:59.889Z,6.38
2022-09-28T23:08:28.302Z,7.18
2022-09-28T23:13:49.985Z,7.18
2022-09-28T23:16:16.900Z,7.03
2022-09-28T23:18:43.973Z,7.03
2022-09-28T23:21:13.879Z,6.82
2022-09-28T23:23:42.337Z,7.20
2022-09-28T23:26:14.582Z,7.72
2022-09-28T23:28:41.992Z,7.57
2022-09-28T23:31:11.094Z,7.78
2022-09-28T23:33:38.084Z,8.23
2022-09-28T23:36:05.903Z,7.80
2022-09-28T23:38:33.169Z,7.68
2022-09-28T23:41:01.406Z,7.95
2022-09-28T23:43:28.316Z,7.88
2022-09-28T23:45:55.156Z,7.63
2022-09-28T23:48:21.981Z,8.05
2022-09-28T23:50:48.810Z,8.07
2022-09-28T23:53:15.893Z,7.82
2022-09-28T23:55:43.477Z,8.48
2022-09-28T23:58:12.184Z,7.93
